createdAt,value
2022-12-15T00:03:25.942Z,40.43
2022-12-15T00:08:46.607Z,40.83
2022-12-15T00:14:06.816Z,41.63
2022-12-15T00:19:28.896Z,41.97
2022-12-15T00:24:49.589Z,40.33
2022-12-15T00:30:10.329Z,40.63
2022-12-15T00:35:32.174Z,40.70
2022-12-15T00:40:35.063Z,41.30
2022-12-15T00:45:54.795Z,42.03
2022-12-15T00:50:59.126Z,40.33
2022-12-15T00:56:19.575Z,40.47
2022-12-15T01:01:40.044Z,40.37
2022-12-15T01:07:02.218Z,40.50
2022-12-15T01:12:23.129Z,40.83
2022-12-15T01:17:43.781Z,39.90
2022-12-15T01:22:48.893Z,41.90
2022-12-15T01:27:52.145Z,40.33
2022-12-15T01:32:55.083Z,39.77
2022-12-15T01:37:59.328Z,40.60
2022-12-15T01:43:02.500Z,40.43
2022-12-15T01:48:08.624Z,39.37
2022-12-15T01:53:15.311Z,40.03
2022-12-15T01:58:20.087Z,39.90
2022-12-15T02:03:24.041Z,39.93
2022-12-15T02:08:28.848Z,40.10
2022-12-15T02:13:40.345Z,40.00
2022-12-15T02:18:53.486Z,40.93
2022-12-15T02:24:27.870Z,41.27
2022-12-15T02:29:55.092Z,41.53
2022-12-15T02:35:04.396Z,39.83
2022-12-15T02:40:10.262Z,40.97
2022-12-15T02:45:16.270Z,40.87
2022-12-15T02:50:39.058Z,41.07
2022-12-15T02:55:50.800Z,40.27
2022-12-15T03:00:59.034Z,40.47
2022-12-15T03:06:05.243Z,41.63
2022-12-15T03:11:08.383Z,41.53
2022-12-15T03:16:11.305Z,41.53
2022-12-15T03:21:15.607Z,40.77
2022-12-15T03:26:18.537Z,40.37
2022-12-15T03:31:21.429Z,41.20
2022-12-15T03:36:25.735Z,41.83
2022-12-15T03:41:28.668Z,41.83
2022-12-15T03:46:31.617Z,41.33
2022-12-15T03:51:35.899Z,40.20
2022-12-15T03:56:38.743Z,42.00
2022-12-15T04:01:47.702Z,42.17
2022-12-15T04:06:52.045Z,42.37
2022-12-15T04:11:54.969Z,42.60
2022-12-15T04:16:58.078Z,41.27
2022-12-15T04:22:04.543Z,41.33
2022-12-15T04:27:25.082Z,42.50
2022-12-15T04:32:49.961Z,41.53
2022-12-15T04:38:12.613Z,40.13
2022-12-15T04:43:33.806Z,39.67
2022-12-15T04:48:54.224Z,41.10
2022-12-15T04:54:15.826Z,40.77
2022-12-15T04:59:36.687Z,41.83
2022-12-15T05:04:57.059Z,49.10
2022-12-15T05:10:18.723Z,42.67
2022-12-15T05:15:39.240Z,40.23
2022-12-15T05:20:59.969Z,42.33
2022-12-15T05:26:21.651Z,42.23
2022-12-15T05:31:41.962Z,40.63
2022-12-15T05:36:44.841Z,46.90
2022-12-15T05:41:49.054Z,41.90
2022-12-15T05:46:52.195Z,45.67
2022-12-15T05:51:55.122Z,42.80
2022-12-15T05:56:59.378Z,41.53
2022-12-15T06:02:02.368Z,41.20
2022-12-15T06:07:05.340Z,41.70
2022-12-15T06:12:09.738Z,41.27
2022-12-15T06:17:13.348Z,41.45
2022-12-15T06:22:16.274Z,41.70
2022-12-15T06:27:20.625Z,40.70
2022-12-15T06:32:23.545Z,40.57
2022-12-15T06:37:26.414Z,40.60
2022-12-15T06:42:30.621Z,42.03
2022-12-15T06:47:33.517Z,40.53
2022-12-15T06:52:36.376Z,42.23
2022-12-15T06:57:40.620Z,41.03
2022-12-15T07:02:43.883Z,41.30
2022-12-15T07:07:53.591Z,40.33
2022-12-15T07:12:58.677Z,42.43
2022-12-15T07:18:01.849Z,41.53
2022-12-15T07:23:07.951Z,41.97
2022-12-15T07:28:12.409Z,46.47
2022-12-15T07:33:15.780Z,42.43
2022-12-15T07:38:18.660Z,41.77
2022-12-15T07:43:23.925Z,42.77
2022-12-15T07:48:27.270Z,42.07
2022-12-15T07:53:30.639Z,42.50
2022-12-15T07:58:35.406Z,42.83
2022-12-15T08:03:39.452Z,43.03
2022-12-15T08:08:44.466Z,43.83
2022-12-15T08:14:09.208Z,43.97
2022-12-15T08:19:15.192Z,42.23
2022-12-15T08:24:19.311Z,43.80
2022-12-15T08:34:47.711Z,44.27
2022-12-15T08:39:50.602Z,44.50
2022-12-15T08:44:54.862Z,43.80
2022-12-15T08:49:57.741Z,45.30
2022-12-15T08:55:00.616Z,44.80
2022-12-15T09:00:05.924Z,44.77
2022-12-15T09:05:09.685Z,43.67
2022-12-15T09:10:12.733Z,44.63
2022-12-15T09:15:17.210Z,48.80
2022-12-15T09:20:20.988Z,45.77
2022-12-15T09:25:23.872Z,47.07
2022-12-15T09:30:28.203Z,44.80
2022-12-15T09:35:31.246Z,44.17
2022-12-15T09:40:34.227Z,44.13
2022-12-15T09:45:43.414Z,45.00
2022-12-15T09:50:49.259Z,44.90
2022-12-15T09:55:58.463Z,45.40
2022-12-15T10:01:11.046Z,47.53
2022-12-15T10:11:50.222Z,45.87
2022-12-15T10:17:03.637Z,46.40
2022-12-15T10:22:06.729Z,45.97
2022-12-15T10:27:28.129Z,44.73
2022-12-15T10:32:50.466Z,44.73
2022-12-15T10:37:54.515Z,45.97
2022-12-15T10:42:57.339Z,44.63
2022-12-15T10:48:03.968Z,45.40
2022-12-15T10:53:09.827Z,42.67
2022-12-15T10:58:18.342Z,45.03
2022-12-15T11:03:24.950Z,44.83
2022-12-15T11:08:30.101Z,45.60
2022-12-15T11:13:34.959Z,46.40
2022-12-15T11:18:45.961Z,48.57
2022-12-15T11:23:58.801Z,47.70
2022-12-15T11:29:07.441Z,46.67
2022-12-15T11:34:15.753Z,46.73
2022-12-15T11:39:34.415Z,48.53
2022-12-15T11:44:45.246Z,47.47
2022-12-15T11:50:15.190Z,49.00
2022-12-15T11:55:32.161Z,46.97
2022-12-15T12:00:43.337Z,47.20
2022-12-15T12:06:11.346Z,47.80
2022-12-15T12:11:17.040Z,48.40
2022-12-15T12:16:30.107Z,47.50
2022-12-15T12:21:39.789Z,46.57
2022-12-15T12:26:48.537Z,47.07
2022-12-15T12:32:05.247Z,48.27
2022-12-15T12:37:17.868Z,47.00
2022-12-15T12:42:27.367Z,49.23
2022-12-15T12:47:34.376Z,47.60
2022-12-15T12:52:39.312Z,47.97
2022-12-15T12:57:43.542Z,47.63
2022-12-15T13:03:16.313Z,47.47
2022-12-15T13:08:50.942Z,46.07
2022-12-15T13:13:55.072Z,46.33
2022-12-15T13:19:01.919Z,51.43
2022-12-15T13:24:07.088Z,46.57
2022-12-15T13:29:13.017Z,51.23
2022-12-15T13:34:28.504Z,48.63
2022-12-15T13:45:24.141Z,48.43
2022-12-15T13:50:40.290Z,47.93
2022-12-15T13:56:02.009Z,47.77
2022-12-15T14:01:20.541Z,47.00
2022-12-15T14:06:24.844Z,48.07
2022-12-15T14:17:01.149Z,48.37
2022-12-15T14:22:04.182Z,47.70
2022-12-15T14:27:07.085Z,47.27
2022-12-15T14:32:11.862Z,48.87
2022-12-15T14:37:20.925Z,47.57
2022-12-15T14:42:27.641Z,47.97
2022-12-15T14:47:34.683Z,48.07
2022-12-15T14:52:42.177Z,48.40
2022-12-15T14:57:46.626Z,48.20
2022-12-15T15:02:50.998Z,48.80
2022-12-15T15:03:11.192Z,48.03
2022-12-15T15:07:56.888Z,48.63
2022-12-15T15:13:00.024Z,48.33
2022-12-15T15:18:04.301Z,49.53
2022-12-15T15:23:17.690Z,52.43
2022-12-15T15:28:25.878Z,50.00
2022-12-15T15:33:30.141Z,49.33
2022-12-15T15:38:35.612Z,47.80
2022-12-15T15:43:38.795Z,47.00
2022-12-15T15:48:45.979Z,47.83
2022-12-15T15:53:49.172Z,47.00
2022-12-15T15:58:52.022Z,47.83
2022-12-15T16:03:56.296Z,48.73
2022-12-15T16:09:00.580Z,47.57
2022-12-15T16:14:03.621Z,48.80
2022-12-15T16:19:08.950Z,50.10
2022-12-15T16:24:16.864Z,49.77
2022-12-15T16:29:22.026Z,46.50
2022-12-15T16:34:26.363Z,45.80
2022-12-15T16:39:32.716Z,54.83
2022-12-15T16:44:35.661Z,47.67
2022-12-15T16:49:40.595Z,47.00
2022-12-15T16:54:46.141Z,47.33
2022-12-15T16:59:49.751Z,47.47
2022-12-15T17:04:55.651Z,51.33
2022-12-15T17:15:28.479Z,45.50
2022-12-15T17:20:33.356Z,47.00
2022-12-15T17:26:18.107Z,45.20
2022-12-15T17:31:01.633Z,45.73
2022-12-15T17:36:14.548Z,45.00
2022-12-15T17:41:42.490Z,45.13
2022-12-15T17:46:48.356Z,44.70
2022-12-15T17:51:55.889Z,46.23
2022-12-15T17:56:58.960Z,45.90
2022-12-15T18:02:02.073Z,49.93
2022-12-15T18:07:06.768Z,49.80
2022-12-15T18:12:18.886Z,48.50
2022-12-15T18:17:22.372Z,46.33
2022-12-15T18:22:26.857Z,47.43
2022-12-15T18:27:30.643Z,47.27
2022-12-15T18:32:38.245Z,49.37
2022-12-15T18:37:42.597Z,52.20
2022-12-15T18:42:51.526Z,47.57
2022-12-15T18:47:55.250Z,49.53
2022-12-15T18:53:04.112Z,52.50
2022-12-15T18:58:09.300Z,58.10
2022-12-15T19:03:16.327Z,53.63
2022-12-15T19:08:25.558Z,48.47
2022-12-15T19:13:31.472Z,47.47
2022-12-15T19:18:52.149Z,47.77
2022-12-15T19:23:56.634Z,47.57
2022-12-15T19:29:00.207Z,47.00
2022-12-15T19:34:03.327Z,49.17
2022-12-15T19:39:09.367Z,48.63
2022-12-15T19:44:15.021Z,48.03
2022-12-15T19:49:17.980Z,48.07
2022-12-15T19:54:23.519Z,48.47
2022-12-15T19:59:28.259Z,49.47
2022-12-15T20:04:52.922Z,50.83
2022-12-15T20:09:58.275Z,48.77
2022-12-15T20:15:01.408Z,48.30
2022-12-15T20:20:05.333Z,47.80
2022-12-15T20:25:16.210Z,48.20
2022-12-15T20:30:21.297Z,48.17
2022-12-15T20:35:34.513Z,48.57
2022-12-15T20:40:38.893Z,48.20
2022-12-15T20:46:04.074Z,47.33
2022-12-15T20:51:27.634Z,47.90
2022-12-15T20:56:34.019Z,49.17
2022-12-15T21:01:38.948Z,49.27
2022-12-15T21:06:43.969Z,47.83
2022-12-15T21:11:49.192Z,48.87
2022-12-15T21:16:52.218Z,48.00
2022-12-15T21:21:55.945Z,47.70
2022-12-15T21:27:01.469Z,61.33
2022-12-15T21:32:17.519Z,50.67
2022-12-15T21:37:25.358Z,49.63
2022-12-15T21:42:29.654Z,48.40
2022-12-15T21:47:47.212Z,49.77
2022-12-15T21:52:50.141Z,48.03
2022-12-15T21:57:56.626Z,47.97
2022-12-15T22:02:59.629Z,47.00
2022-12-15T22:08:14.918Z,47.73
2022-12-15T22:13:20.767Z,48.10
2022-12-15T22:18:24.815Z,47.27
2022-12-15T22:23:27.765Z,48.07
2022-12-15T22:28:34.087Z,48.37
2022-12-15T22:33:37.338Z,47.33
2022-12-15T22:38:40.641Z,44.70
2022-12-15T22:43:46.228Z,46.30
2022-12-15T22:48:49.537Z,45.50
2022-12-15T22:53:53.278Z,46.03
2022-12-15T22:59:02.605Z,42.87
2022-12-15T23:04:06.825Z,43.47
2022-12-15T23:09:09.677Z,42.40
2022-12-15T23:14:16.119Z,42.17
2022-12-15T23:19:24.469Z,41.70
2022-12-15T23:24:27.807Z,44.17
2022-12-15T23:29:32.201Z,43.67
2022-12-15T23:34:35.088Z,42.87
2022-12-15T23:39:38.029Z,42.27
2022-12-15T23:44:42.627Z,42.63
2022-12-15T23:49:45.541Z,45.30
2022-12-15T23:54:49.184Z,42.37
2022-12-15T23:59:54.770Z,41.90
